sensor_id;sensor_type;location;lat;lon;timestamp;P1;durP1;ratioP1;P2;durP2;ratioP2
66264;SDS011;53055;44.648;21.148;2022-07-29T00:00:59;5.68;;;3.40;;
66264;SDS011;53055;44.648;21.148;2022-07-29T00:03:25;5.57;;;3.35;;
66264;SDS011;53055;44.648;21.148;2022-07-29T00:05:51;5.72;;;3.50;;
66264;SDS011;53055;44.648;21.148;2022-07-29T00:08:18;5.78;;;3.92;;
66264;SDS011;53055;44.648;21.148;2022-07-29T00:10:44;6.03;;;3.53;;
66264;SDS011;53055;44.648;21.148;2022-07-29T00:13:11;6.80;;;3.67;;
66264;SDS011;53055;44.648;21.148;2022-07-29T00:15:37;5.43;;;3.30;;
66264;SDS011;53055;44.648;21.148;2022-07-29T00:18:03;5.40;;;3.08;;
66264;SDS011;53055;44.648;21.148;2022-07-29T00:20:29;6.60;;;3.47;;
66264;SDS011;53055;44.648;21.148;2022-07-29T00:22:55;6.13;;;3.20;;
66264;SDS011;53055;44.648;21.148;2022-07-29T00:25:21;6.65;;;3.25;;
66264;SDS011;53055;44.648;21.148;2022-07-29T00:27:47;6.50;;;3.25;;
66264;SDS011;53055;44.648;21.148;2022-07-29T00:30:13;5.93;;;3.45;;
66264;SDS011;53055;44.648;21.148;2022-07-29T00:32:39;4.97;;;3.03;;
66264;SDS011;53055;44.648;21.148;2022-07-29T00:35:06;5.80;;;3.00;;
66264;SDS011;53055;44.648;21.148;2022-07-29T00:37:51;7.28;;;3.42;;
66264;SDS011;53055;44.648;21.148;2022-07-29T00:40:17;4.95;;;2.95;;
66264;SDS011;53055;44.648;21.148;2022-07-29T00:42:47;6.10;;;3.50;;
66264;SDS011;53055;44.648;21.148;2022-07-29T00:45:14;6.35;;;3.15;;
66264;SDS011;53055;44.648;21.148;2022-07-29T00:47:40;6.43;;;3.50;;
66264;SDS011;53055;44.648;21.148;2022-07-29T00:50:07;6.60;;;3.10;;
66264;SDS011;53055;44.648;21.148;2022-07-29T00:52:33;5.38;;;3.00;;
66264;SDS011;53055;44.648;21.148;2022-07-29T00:55:02;6.00;;;3.20;;
66264;SDS011;53055;44.648;21.148;2022-07-29T00:57:28;5.05;;;3.03;;
66264;SDS011;53055;44.648;21.148;2022-07-29T00:59:55;5.45;;;3.08;;
66264;SDS011;53055;44.648;21.148;2022-07-29T01:02:21;6.10;;;3.42;;
66264;SDS011;53055;44.648;21.148;2022-07-29T01:04:47;6.00;;;3.05;;
66264;SDS011;53055;44.648;21.148;2022-07-29T01:07:13;5.68;;;3.38;;
66264;SDS011;53055;44.648;21.148;2022-07-29T01:09:40;5.78;;;3.20;;
66264;SDS011;53055;44.648;21.148;2022-07-29T01:12:06;5.30;;;3.30;;
66264;SDS011;53055;44.648;21.148;2022-07-29T01:14:32;5.78;;;3.72;;
66264;SDS011;53055;44.648;21.148;2022-07-29T01:17:08;5.75;;;3.40;;
66264;SDS011;53055;44.648;21.148;2022-07-29T01:22:08;5.90;;;3.22;;
66264;SDS011;53055;44.648;21.148;2022-07-29T01:25:29;9.23;;;4.20;;
66264;SDS011;53055;44.648;21.148;2022-07-29T01:29:59;5.10;;;3.20;;
66264;SDS011;53055;44.648;21.148;2022-07-29T01:32:27;7.18;;;3.50;;
66264;SDS011;53055;44.648;21.148;2022-07-29T01:34:59;6.85;;;3.30;;
66264;SDS011;53055;44.648;21.148;2022-07-29T01:37:43;6.50;;;3.47;;
66264;SDS011;53055;44.648;21.148;2022-07-29T01:40:19;5.80;;;3.35;;
66264;SDS011;53055;44.648;21.148;2022-07-29T01:42:48;6.28;;;3.40;;
66264;SDS011;53055;44.648;21.148;2022-07-29T01:45:20;5.22;;;3.30;;
66264;SDS011;53055;44.648;21.148;2022-07-29T01:47:58;5.35;;;3.50;;
66264;SDS011;53055;44.648;21.148;2022-07-29T01:50:36;7.65;;;3.40;;
66264;SDS011;53055;44.648;21.148;2022-07-29T01:53:09;6.60;;;3.53;;
66264;SDS011;53055;44.648;21.148;2022-07-29T01:55:40;5.88;;;3.60;;
66264;SDS011;53055;44.648;21.148;2022-07-29T01:58:06;6.13;;;3.67;;
66264;SDS011;53055;44.648;21.148;2022-07-29T02:00:33;6.00;;;3.80;;
66264;SDS011;53055;44.648;21.148;2022-07-29T02:03:04;6.47;;;4.32;;
66264;SDS011;53055;44.648;21.148;2022-07-29T02:05:31;6.90;;;4.18;;
66264;SDS011;53055;44.648;21.148;2022-07-29T02:07:58;5.82;;;3.63;;
66264;SDS011;53055;44.648;21.148;2022-07-29T02:10:26;7.65;;;3.75;;
66264;SDS011;53055;44.648;21.148;2022-07-29T02:12:54;5.40;;;3.42;;
66264;SDS011;53055;44.648;21.148;2022-07-29T02:15:20;5.90;;;4.05;;
66264;SDS011;53055;44.648;21.148;2022-07-29T02:17:58;5.47;;;3.53;;
66264;SDS011;53055;44.648;21.148;2022-07-29T02:20:25;5.65;;;3.90;;
66264;SDS011;53055;44.648;21.148;2022-07-29T02:22:52;6.45;;;4.00;;
66264;SDS011;53055;44.648;21.148;2022-07-29T02:25:19;6.05;;;3.50;;
66264;SDS011;53055;44.648;21.148;2022-07-29T02:27:46;6.70;;;3.75;;
66264;SDS011;53055;44.648;21.148;2022-07-29T02:30:12;6.43;;;3.88;;
66264;SDS011;53055;44.648;21.148;2022-07-29T02:32:39;5.53;;;3.70;;
66264;SDS011;53055;44.648;21.148;2022-07-29T02:35:06;6.65;;;4.10;;
66264;SDS011;53055;44.648;21.148;2022-07-29T02:37:32;7.75;;;3.72;;
66264;SDS011;53055;44.648;21.148;2022-07-29T02:39:59;6.20;;;3.50;;
66264;SDS011;53055;44.648;21.148;2022-07-29T02:42:26;5.72;;;3.47;;
66264;SDS011;53055;44.648;21.148;2022-07-29T02:44:52;5.53;;;3.47;;
66264;SDS011;53055;44.648;21.148;2022-07-29T02:47:23;7.28;;;3.47;;
66264;SDS011;53055;44.648;21.148;2022-07-29T02:52:45;5.85;;;3.60;;
66264;SDS011;53055;44.648;21.148;2022-07-29T02:55:25;5.78;;;3.22;;
66264;SDS011;53055;44.648;21.148;2022-07-29T02:58:01;4.95;;;3.30;;
66264;SDS011;53055;44.648;21.148;2022-07-29T03:00:28;5.47;;;3.00;;
66264;SDS011;53055;44.648;21.148;2022-07-29T03:02:56;5.85;;;3.40;;
66264;SDS011;53055;44.648;21.148;2022-07-29T03:05:24;5.55;;;3.40;;
66264;SDS011;53055;44.648;21.148;2022-07-29T03:08:09;7.00;;;3.50;;
66264;SDS011;53055;44.648;21.148;2022-07-29T03:10:37;6.15;;;3.47;;
66264;SDS011;53055;44.648;21.148;2022-07-29T03:13:03;5.70;;;3.55;;
66264;SDS011;53055;44.648;21.148;2022-07-29T03:15:30;6.38;;;3.42;;
66264;SDS011;53055;44.648;21.148;2022-07-29T03:17:57;6.75;;;3.22;;
66264;SDS011;53055;44.648;21.148;2022-07-29T03:20:24;6.10;;;3.60;;
66264;SDS011;53055;44.648;21.148;2022-07-29T03:22:50;6.32;;;3.60;;
66264;SDS011;53055;44.648;21.148;2022-07-29T03:25:17;7.68;;;3.40;;
66264;SDS011;53055;44.648;21.148;2022-07-29T03:27:43;5.82;;;3.50;;
66264;SDS011;53055;44.648;21.148;2022-07-29T03:30:10;5.80;;;3.47;;
66264;SDS011;53055;44.648;21.148;2022-07-29T03:32:36;7.95;;;3.72;;
66264;SDS011;53055;44.648;21.148;2022-07-29T03:35:03;5.38;;;3.13;;
66264;SDS011;53055;44.648;21.148;2022-07-29T03:37:29;5.55;;;3.28;;
66264;SDS011;53055;44.648;21.148;2022-07-29T03:39:56;6.25;;;3.45;;
66264;SDS011;53055;44.648;21.148;2022-07-29T03:42:23;5.78;;;3.30;;
66264;SDS011;53055;44.648;21.148;2022-07-29T03:44:50;5.28;;;3.05;;
66264;SDS011;53055;44.648;21.148;2022-07-29T03:47:17;5.43;;;3.13;;
66264;SDS011;53055;44.648;21.148;2022-07-29T03:49:44;5.70;;;3.20;;
66264;SDS011;53055;44.648;21.148;2022-07-29T03:52:12;5.82;;;3.40;;
66264;SDS011;53055;44.648;21.148;2022-07-29T03:54:38;5.97;;;3.50;;
66264;SDS011;53055;44.648;21.148;2022-07-29T03:57:04;5.78;;;3.28;;
66264;SDS011;53055;44.648;21.148;2022-07-29T03:59:32;6.03;;;3.60;;
66264;SDS011;53055;44.648;21.148;2022-07-29T04:02:02;5.65;;;3.22;;
66264;SDS011;53055;44.648;21.148;2022-07-29T04:04:29;7.05;;;3.38;;
66264;SDS011;53055;44.648;21.148;2022-07-29T04:06:57;6.30;;;3.35;;
66264;SDS011;53055;44.648;21.148;2022-07-29T04:09:23;6.60;;;3.25;;
66264;SDS011;53055;44.648;21.148;2022-07-29T04:11:49;5.47;;;3.20;;
66264;SDS011;53055;44.648;21.148;2022-07-29T04:14:16;5.30;;;2.95;;
66264;SDS011;53055;44.648;21.148;2022-07-29T04:16:42;5.10;;;3.30;;
66264;SDS011;53055;44.648;21.148;2022-07-29T04:19:08;5.40;;;2.90;;
66264;SDS011;53055;44.648;21.148;2022-07-29T04:21:40;7.15;;;3.28;;
66264;SDS011;53055;44.648;21.148;2022-07-29T04:24:07;5.68;;;3.20;;
66264;SDS011;53055;44.648;21.148;2022-07-29T04:26:33;6.10;;;3.60;;
66264;SDS011;53055;44.648;21.148;2022-07-29T04:28:59;9.68;;;6.40;;
66264;SDS011;53055;44.648;21.148;2022-07-29T04:31:26;6.63;;;4.20;;
66264;SDS011;53055;44.648;21.148;2022-07-29T04:33:52;6.30;;;4.00;;
66264;SDS011;53055;44.648;21.148;2022-07-29T04:36:18;6.95;;;4.40;;
66264;SDS011;53055;44.648;21.148;2022-07-29T04:38:44;6.65;;;4.55;;
66264;SDS011;53055;44.648;21.148;2022-07-29T04:41:10;10.73;;;6.07;;
66264;SDS011;53055;44.648;21.148;2022-07-29T04:43:36;7.20;;;4.68;;
66264;SDS011;53055;44.648;21.148;2022-07-29T04:46:03;8.32;;;6.95;;
66264;SDS011;53055;44.648;21.148;2022-07-29T04:48:29;7.95;;;4.28;;
66264;SDS011;53055;44.648;21.148;2022-07-29T04:50:55;5.97;;;3.85;;
66264;SDS011;53055;44.648;21.148;2022-07-29T04:53:21;6.32;;;4.13;;
66264;SDS011;53055;44.648;21.148;2022-07-29T04:55:47;9.00;;;4.78;;
66264;SDS011;53055;44.648;21.148;2022-07-29T04:58:14;9.57;;;6.80;;
66264;SDS011;53055;44.648;21.148;2022-07-29T05:00:40;6.50;;;4.32;;
66264;SDS011;53055;44.648;21.148;2022-07-29T05:03:06;6.68;;;4.68;;
66264;SDS011;53055;44.648;21.148;2022-07-29T05:05:32;6.15;;;4.22;;
66264;SDS011;53055;44.648;21.148;2022-07-29T05:07:58;7.72;;;4.70;;
66264;SDS011;53055;44.648;21.148;2022-07-29T05:10:24;7.72;;;4.38;;
66264;SDS011;53055;44.648;21.148;2022-07-29T05:12:50;7.85;;;4.43;;
66264;SDS011;53055;44.648;21.148;2022-07-29T05:15:17;6.28;;;4.13;;
66264;SDS011;53055;44.648;21.148;2022-07-29T05:17:43;6.60;;;4.20;;
66264;SDS011;53055;44.648;21.148;2022-07-29T05:20:09;7.07;;;4.03;;
66264;SDS011;53055;44.648;21.148;2022-07-29T05:22:36;5.82;;;4.50;;
66264;SDS011;53055;44.648;21.148;2022-07-29T05:25:02;6.72;;;4.70;;
66264;SDS011;53055;44.648;21.148;2022-07-29T05:27:28;6.68;;;4.72;;
66264;SDS011;53055;44.648;21.148;2022-07-29T05:29:54;7.03;;;4.88;;
66264;SDS011;53055;44.648;21.148;2022-07-29T05:32:20;7.90;;;4.78;;
66264;SDS011;53055;44.648;21.148;2022-07-29T05:34:46;8.43;;;4.57;;
66264;SDS011;53055;44.648;21.148;2022-07-29T05:37:12;8.35;;;5.65;;
66264;SDS011;53055;44.648;21.148;2022-07-29T05:39:38;7.25;;;5.25;;
66264;SDS011;53055;44.648;21.148;2022-07-29T05:42:08;6.90;;;5.28;;
66264;SDS011;53055;44.648;21.148;2022-07-29T05:44:37;7.18;;;5.32;;
66264;SDS011;53055;44.648;21.148;2022-07-29T05:47:04;9.18;;;5.57;;
66264;SDS011;53055;44.648;21.148;2022-07-29T05:49:30;7.72;;;6.07;;
66264;SDS011;53055;44.648;21.148;2022-07-29T05:51:56;9.40;;;7.25;;
66264;SDS011;53055;44.648;21.148;2022-07-29T05:54:23;10.57;;;7.25;;
66264;SDS011;53055;44.648;21.148;2022-07-29T05:56:49;9.50;;;7.32;;
66264;SDS011;53055;44.648;21.148;2022-07-29T05:59:15;8.57;;;7.45;;
66264;SDS011;53055;44.648;21.148;2022-07-29T06:01:41;11.35;;;8.60;;
66264;SDS011;53055;44.648;21.148;2022-07-29T06:04:07;10.07;;;8.25;;
66264;SDS011;53055;44.648;21.148;2022-07-29T06:06:33;9.98;;;8.30;;
66264;SDS011;53055;44.648;21.148;2022-07-29T06:09:00;11.00;;;8.32;;
66264;SDS011;53055;44.648;21.148;2022-07-29T06:11:26;11.82;;;8.95;;
66264;SDS011;53055;44.648;21.148;2022-07-29T06:13:52;11.52;;;9.95;;
66264;SDS011;53055;44.648;21.148;2022-07-29T06:16:18;11.43;;;9.55;;
66264;SDS011;53055;44.648;21.148;2022-07-29T06:18:44;11.70;;;10.50;;
66264;SDS011;53055;44.648;21.148;2022-07-29T06:21:10;11.43;;;9.68;;
66264;SDS011;53055;44.648;21.148;2022-07-29T06:23:37;11.25;;;10.05;;
66264;SDS011;53055;44.648;21.148;2022-07-29T06:26:03;10.95;;;9.82;;
66264;SDS011;53055;44.648;21.148;2022-07-29T06:28:30;11.20;;;10.05;;
66264;SDS011;53055;44.648;21.148;2022-07-29T06:30:56;12.18;;;10.95;;
66264;SDS011;53055;44.648;21.148;2022-07-29T06:33:22;12.38;;;11.07;;
66264;SDS011;53055;44.648;21.148;2022-07-29T06:35:48;13.27;;;11.65;;
66264;SDS011;53055;44.648;21.148;2022-07-29T06:38:14;12.38;;;11.07;;
66264;SDS011;53055;44.648;21.148;2022-07-29T06:40:41;11.88;;;10.52;;
66264;SDS011;53055;44.648;21.148;2022-07-29T06:43:32;12.23;;;11.00;;
66264;SDS011;53055;44.648;21.148;2022-07-29T06:46:02;12.60;;;11.30;;
66264;SDS011;53055;44.648;21.148;2022-07-29T06:48:29;13.85;;;12.13;;
66264;SDS011;53055;44.648;21.148;2022-07-29T06:50:55;13.82;;;12.43;;
66264;SDS011;53055;44.648;21.148;2022-07-29T06:53:21;13.27;;;11.88;;
66264;SDS011;53055;44.648;21.148;2022-07-29T06:55:47;13.32;;;11.93;;
66264;SDS011;53055;44.648;21.148;2022-07-29T06:58:13;13.98;;;12.20;;
66264;SDS011;53055;44.648;21.148;2022-07-29T07:00:41;16.08;;;12.05;;
66264;SDS011;53055;44.648;21.148;2022-07-29T07:03:07;13.40;;;11.55;;
66264;SDS011;53055;44.648;21.148;2022-07-29T07:05:33;12.85;;;11.65;;
66264;SDS011;53055;44.648;21.148;2022-07-29T07:07:59;14.18;;;12.40;;
66264;SDS011;53055;44.648;21.148;2022-07-29T07:10:25;13.20;;;11.80;;
66264;SDS011;53055;44.648;21.148;2022-07-29T07:12:51;12.32;;;11.05;;
66264;SDS011;53055;44.648;21.148;2022-07-29T07:15:17;12.07;;;10.98;;
66264;SDS011;53055;44.648;21.148;2022-07-29T07:17:47;13.00;;;11.70;;
66264;SDS011;53055;44.648;21.148;2022-07-29T07:20:13;12.27;;;10.77;;
66264;SDS011;53055;44.648;21.148;2022-07-29T07:22:39;12.98;;;11.63;;
66264;SDS011;53055;44.648;21.148;2022-07-29T07:25:06;12.30;;;11.00;;
66264;SDS011;53055;44.648;21.148;2022-07-29T07:27:32;12.70;;;11.45;;
66264;SDS011;53055;44.648;21.148;2022-07-29T07:29:58;12.27;;;11.07;;
66264;SDS011;53055;44.648;21.148;2022-07-29T07:32:24;12.80;;;11.45;;
66264;SDS011;53055;44.648;21.148;2022-07-29T07:34:50;12.43;;;11.15;;
66264;SDS011;53055;44.648;21.148;2022-07-29T07:37:16;13.63;;;11.15;;
66264;SDS011;53055;44.648;21.148;2022-07-29T07:39:45;12.68;;;11.20;;
66264;SDS011;53055;44.648;21.148;2022-07-29T07:42:11;11.70;;;10.55;;
66264;SDS011;53055;44.648;21.148;2022-07-29T07:44:38;11.80;;;10.55;;
66264;SDS011;53055;44.648;21.148;2022-07-29T07:47:04;11.95;;;10.75;;
66264;SDS011;53055;44.648;21.148;2022-07-29T07:49:30;11.68;;;10.48;;
66264;SDS011;53055;44.648;21.148;2022-07-29T07:51:56;12.07;;;10.88;;
66264;SDS011;53055;44.648;21.148;2022-07-29T07:54:22;12.32;;;10.93;;
66264;SDS011;53055;44.648;21.148;2022-07-29T07:56:48;13.10;;;11.38;;
66264;SDS011;53055;44.648;21.148;2022-07-29T07:59:15;11.13;;;9.90;;
66264;SDS011;53055;44.648;21.148;2022-07-29T08:01:41;12.18;;;10.93;;
66264;SDS011;53055;44.648;21.148;2022-07-29T08:04:07;11.55;;;10.32;;
66264;SDS011;53055;44.648;21.148;2022-07-29T08:06:34;11.52;;;10.32;;
66264;SDS011;53055;44.648;21.148;2022-07-29T08:09:01;12.13;;;9.93;;
66264;SDS011;53055;44.648;21.148;2022-07-29T08:11:27;12.82;;;9.45;;
66264;SDS011;53055;44.648;21.148;2022-07-29T08:13:53;11.85;;;9.80;;
66264;SDS011;53055;44.648;21.148;2022-07-29T08:16:19;13.23;;;9.48;;
66264;SDS011;53055;44.648;21.148;2022-07-29T08:18:45;10.68;;;9.43;;
66264;SDS011;53055;44.648;21.148;2022-07-29T08:21:12;12.50;;;9.90;;
66264;SDS011;53055;44.648;21.148;2022-07-29T08:23:38;10.63;;;9.52;;
66264;SDS011;53055;44.648;21.148;2022-07-29T08:26:10;11.30;;;9.73;;
66264;SDS011;53055;44.648;21.148;2022-07-29T08:28:37;12.13;;;9.90;;
66264;SDS011;53055;44.648;21.148;2022-07-29T08:31:03;11.38;;;9.68;;
66264;SDS011;53055;44.648;21.148;2022-07-29T08:33:29;10.98;;;9.88;;
66264;SDS011;53055;44.648;21.148;2022-07-29T08:35:55;11.38;;;9.65;;
66264;SDS011;53055;44.648;21.148;2022-07-29T08:38:21;13.32;;;9.88;;
66264;SDS011;53055;44.648;21.148;2022-07-29T08:40:47;10.50;;;8.88;;
66264;SDS011;53055;44.648;21.148;2022-07-29T08:43:14;10.40;;;9.40;;
66264;SDS011;53055;44.648;21.148;2022-07-29T08:45:44;11.65;;;9.57;;
66264;SDS011;53055;44.648;21.148;2022-07-29T08:48:17;10.50;;;9.15;;
66264;SDS011;53055;44.648;21.148;2022-07-29T08:50:44;10.45;;;9.32;;
66264;SDS011;53055;44.648;21.148;2022-07-29T08:53:11;12.07;;;9.18;;
66264;SDS011;53055;44.648;21.148;2022-07-29T08:55:44;10.55;;;9.38;;
66264;SDS011;53055;44.648;21.148;2022-07-29T08:58:10;10.13;;;9.02;;
66264;SDS011;53055;44.648;21.148;2022-07-29T09:00:39;11.57;;;9.23;;
66264;SDS011;53055;44.648;21.148;2022-07-29T09:03:06;12.18;;;9.98;;
66264;SDS011;53055;44.648;21.148;2022-07-29T09:05:34;12.07;;;9.90;;
66264;SDS011;53055;44.648;21.148;2022-07-29T09:08:01;9.93;;;8.93;;
66264;SDS011;53055;44.648;21.148;2022-07-29T09:10:27;10.82;;;9.13;;
66264;SDS011;53055;44.648;21.148;2022-07-29T09:12:56;12.43;;;9.48;;
66264;SDS011;53055;44.648;21.148;2022-07-29T09:15:22;16.42;;;10.32;;
66264;SDS011;53055;44.648;21.148;2022-07-29T09:17:49;10.63;;;9.52;;
66264;SDS011;53055;44.648;21.148;2022-07-29T09:20:24;10.35;;;9.20;;
66264;SDS011;53055;44.648;21.148;2022-07-29T09:22:51;10.43;;;9.38;;
66264;SDS011;53055;44.648;21.148;2022-07-29T09:28:19;11.02;;;9.60;;
66264;SDS011;53055;44.648;21.148;2022-07-29T09:33:17;10.07;;;9.07;;
66264;SDS011;53055;44.648;21.148;2022-07-29T09:35:43;10.30;;;9.20;;
66264;SDS011;53055;44.648;21.148;2022-07-29T09:38:13;11.18;;;9.95;;
66264;SDS011;53055;44.648;21.148;2022-07-29T09:40:39;11.73;;;9.45;;
66264;SDS011;53055;44.648;21.148;2022-07-29T09:43:12;10.85;;;9.60;;
66264;SDS011;53055;44.648;21.148;2022-07-29T09:45:38;11.23;;;9.80;;
66264;SDS011;53055;44.648;21.148;2022-07-29T09:48:18;10.80;;;9.70;;
66264;SDS011;53055;44.648;21.148;2022-07-29T09:50:44;10.45;;;9.13;;
66264;SDS011;53055;44.648;21.148;2022-07-29T09:53:12;11.75;;;9.48;;
66264;SDS011;53055;44.648;21.148;2022-07-29T09:55:45;10.55;;;8.73;;
66264;SDS011;53055;44.648;21.148;2022-07-29T09:58:18;11.00;;;9.85;;
66264;SDS011;53055;44.648;21.148;2022-07-29T10:00:45;10.48;;;9.43;;
66264;SDS011;53055;44.648;21.148;2022-07-29T10:03:12;10.13;;;9.13;;
66264;SDS011;53055;44.648;21.148;2022-07-29T10:05:38;10.52;;;8.93;;
66264;SDS011;53055;44.648;21.148;2022-07-29T10:08:08;11.10;;;9.50;;
66264;SDS011;53055;44.648;21.148;2022-07-29T10:10:38;10.52;;;9.18;;
66264;SDS011;53055;44.648;21.148;2022-07-29T10:13:05;10.23;;;9.02;;
66264;SDS011;53055;44.648;21.148;2022-07-29T10:15:32;10.93;;;9.82;;
66264;SDS011;53055;44.648;21.148;2022-07-29T10:18:02;10.68;;;9.18;;
66264;SDS011;53055;44.648;21.148;2022-07-29T10:20:28;12.88;;;9.20;;
66264;SDS011;53055;44.648;21.148;2022-07-29T10:22:54;14.05;;;9.13;;
66264;SDS011;53055;44.648;21.148;2022-07-29T10:25:21;10.68;;;9.38;;
66264;SDS011;53055;44.648;21.148;2022-07-29T10:27:47;10.80;;;9.07;;
66264;SDS011;53055;44.648;21.148;2022-07-29T10:30:14;10.15;;;8.68;;
66264;SDS011;53055;44.648;21.148;2022-07-29T10:32:46;10.98;;;9.02;;
66264;SDS011;53055;44.648;21.148;2022-07-29T10:35:18;12.48;;;9.30;;
66264;SDS011;53055;44.648;21.148;2022-07-29T10:42:58;10.25;;;8.50;;
66264;SDS011;53055;44.648;21.148;2022-07-29T10:45:28;10.23;;;9.23;;
66264;SDS011;53055;44.648;21.148;2022-07-29T10:48:04;10.60;;;9.50;;
66264;SDS011;53055;44.648;21.148;2022-07-29T10:51:13;10.35;;;9.02;;
66264;SDS011;53055;44.648;21.148;2022-07-29T10:53:23;11.23;;;9.07;;
66264;SDS011;53055;44.648;21.148;2022-07-29T10:55:50;9.50;;;8.30;;
66264;SDS011;53055;44.648;21.148;2022-07-29T10:58:22;10.68;;;8.93;;
66264;SDS011;53055;44.648;21.148;2022-07-29T11:00:54;12.55;;;9.10;;
66264;SDS011;53055;44.648;21.148;2022-07-29T11:06:05;10.05;;;8.32;;
66264;SDS011;53055;44.648;21.148;2022-07-29T11:08:31;11.90;;;7.72;;
66264;SDS011;53055;44.648;21.148;2022-07-29T11:14:00;10.02;;;8.45;;
66264;SDS011;53055;44.648;21.148;2022-07-29T11:16:26;11.65;;;8.07;;
66264;SDS011;53055;44.648;21.148;2022-07-29T11:21:39;9.35;;;8.25;;
66264;SDS011;53055;44.648;21.148;2022-07-29T11:24:39;10.55;;;8.07;;
66264;SDS011;53055;44.648;21.148;2022-07-29T11:29:25;9.50;;;8.50;;
66264;SDS011;53055;44.648;21.148;2022-07-29T11:31:52;9.95;;;8.00;;
66264;SDS011;53055;44.648;21.148;2022-07-29T11:34:25;10.98;;;8.57;;
66264;SDS011;53055;44.648;21.148;2022-07-29T11:39:41;10.68;;;7.88;;
66264;SDS011;53055;44.648;21.148;2022-07-29T11:47:42;9.25;;;8.32;;
66264;SDS011;53055;44.648;21.148;2022-07-29T11:50:13;8.90;;;8.00;;
66264;SDS011;53055;44.648;21.148;2022-07-29T11:52:44;9.32;;;7.97;;
66264;SDS011;53055;44.648;21.148;2022-07-29T11:55:18;8.60;;;7.53;;
66264;SDS011;53055;44.648;21.148;2022-07-29T11:57:51;9.70;;;8.00;;
66264;SDS011;53055;44.648;21.148;2022-07-29T12:00:31;8.38;;;7.43;;
66264;SDS011;53055;44.648;21.148;2022-07-29T12:03:02;8.93;;;7.78;;
66264;SDS011;53055;44.648;21.148;2022-07-29T12:08:04;8.60;;;7.25;;
66264;SDS011;53055;44.648;21.148;2022-07-29T12:10:30;9.05;;;7.30;;
66264;SDS011;53055;44.648;21.148;2022-07-29T12:12:56;10.23;;;7.38;;
66264;SDS011;53055;44.648;21.148;2022-07-29T12:15:22;8.43;;;7.50;;
66264;SDS011;53055;44.648;21.148;2022-07-29T12:17:50;9.23;;;8.02;;
66264;SDS011;53055;44.648;21.148;2022-07-29T12:20:26;9.48;;;7.35;;
66264;SDS011;53055;44.648;21.148;2022-07-29T12:22:52;8.63;;;7.72;;
66264;SDS011;53055;44.648;21.148;2022-07-29T12:25:19;11.20;;;7.78;;
66264;SDS011;53055;44.648;21.148;2022-07-29T12:27:46;10.48;;;7.63;;
66264;SDS011;53055;44.648;21.148;2022-07-29T12:30:13;9.32;;;7.88;;
66264;SDS011;53055;44.648;21.148;2022-07-29T12:35:11;8.93;;;7.75;;
66264;SDS011;53055;44.648;21.148;2022-07-29T12:37:38;9.05;;;7.82;;
66264;SDS011;53055;44.648;21.148;2022-07-29T12:40:06;11.30;;;7.60;;
66264;SDS011;53055;44.648;21.148;2022-07-29T12:42:32;8.07;;;7.10;;
66264;SDS011;53055;44.648;21.148;2022-07-29T12:44:58;9.93;;;7.65;;
66264;SDS011;53055;44.648;21.148;2022-07-29T12:47:24;8.45;;;7.38;;
66264;SDS011;53055;44.648;21.148;2022-07-29T12:49:51;8.40;;;7.50;;
66264;SDS011;53055;44.648;21.148;2022-07-29T12:52:33;11.18;;;8.85;;
66264;SDS011;53055;44.648;21.148;2022-07-29T12:54:59;14.63;;;11.55;;
66264;SDS011;53055;44.648;21.148;2022-07-29T12:57:26;12.00;;;10.20;;
66264;SDS011;53055;44.648;21.148;2022-07-29T12:59:59;13.50;;;9.13;;
66264;SDS011;53055;44.648;21.148;2022-07-29T13:02:25;9.40;;;7.32;;
66264;SDS011;53055;44.648;21.148;2022-07-29T13:05:00;8.93;;;7.28;;
66264;SDS011;53055;44.648;21.148;2022-07-29T13:07:27;10.10;;;7.53;;
66264;SDS011;53055;44.648;21.148;2022-07-29T13:09:54;12.02;;;10.30;;
66264;SDS011;53055;44.648;21.148;2022-07-29T13:12:20;12.85;;;8.57;;
66264;SDS011;53055;44.648;21.148;2022-07-29T13:14:48;8.35;;;7.30;;
66264;SDS011;53055;44.648;21.148;2022-07-29T13:17:15;8.57;;;7.68;;
66264;SDS011;53055;44.648;21.148;2022-07-29T13:22:16;8.73;;;7.53;;
66264;SDS011;53055;44.648;21.148;2022-07-29T13:24:49;8.88;;;7.53;;
66264;SDS011;53055;44.648;21.148;2022-07-29T13:27:18;9.55;;;8.00;;
66264;SDS011;53055;44.648;21.148;2022-07-29T13:29:45;11.77;;;8.70;;
66264;SDS011;53055;44.648;21.148;2022-07-29T13:32:11;9.27;;;7.72;;
66264;SDS011;53055;44.648;21.148;2022-07-29T13:34:37;8.70;;;7.53;;
66264;SDS011;53055;44.648;21.148;2022-07-29T13:37:03;9.15;;;7.63;;
66264;SDS011;53055;44.648;21.148;2022-07-29T13:39:29;8.70;;;7.53;;
66264;SDS011;53055;44.648;21.148;2022-07-29T13:41:55;8.88;;;7.40;;
66264;SDS011;53055;44.648;21.148;2022-07-29T13:44:21;9.63;;;7.40;;
66264;SDS011;53055;44.648;21.148;2022-07-29T13:46:48;8.68;;;7.57;;
66264;SDS011;53055;44.648;21.148;2022-07-29T13:49:14;8.38;;;6.65;;
66264;SDS011;53055;44.648;21.148;2022-07-29T13:51:40;8.10;;;7.30;;
66264;SDS011;53055;44.648;21.148;2022-07-29T13:54:06;9.13;;;8.10;;
66264;SDS011;53055;44.648;21.148;2022-07-29T13:56:32;8.15;;;7.22;;
66264;SDS011;53055;44.648;21.148;2022-07-29T13:58:58;9.13;;;7.70;;
66264;SDS011;53055;44.648;21.148;2022-07-29T14:01:24;9.00;;;7.72;;
66264;SDS011;53055;44.648;21.148;2022-07-29T14:03:51;8.15;;;7.35;;
66264;SDS011;53055;44.648;21.148;2022-07-29T14:06:17;9.20;;;7.40;;
66264;SDS011;53055;44.648;21.148;2022-07-29T14:08:43;10.18;;;7.07;;
66264;SDS011;53055;44.648;21.148;2022-07-29T14:11:09;10.38;;;7.55;;
66264;SDS011;53055;44.648;21.148;2022-07-29T14:13:35;9.07;;;7.45;;
66264;SDS011;53055;44.648;21.148;2022-07-29T14:16:01;7.97;;;7.10;;
66264;SDS011;53055;44.648;21.148;2022-07-29T14:18:27;8.05;;;7.00;;
66264;SDS011;53055;44.648;21.148;2022-07-29T14:20:53;9.32;;;7.28;;
66264;SDS011;53055;44.648;21.148;2022-07-29T14:23:19;8.02;;;7.15;;
66264;SDS011;53055;44.648;21.148;2022-07-29T14:25:45;10.75;;;7.97;;
66264;SDS011;53055;44.648;21.148;2022-07-29T14:28:11;8.75;;;7.75;;
66264;SDS011;53055;44.648;21.148;2022-07-29T14:30:38;9.32;;;7.15;;
66264;SDS011;53055;44.648;21.148;2022-07-29T14:33:04;10.25;;;7.72;;
66264;SDS011;53055;44.648;21.148;2022-07-29T14:35:30;9.20;;;7.47;;
66264;SDS011;53055;44.648;21.148;2022-07-29T14:37:56;10.25;;;7.38;;
66264;SDS011;53055;44.648;21.148;2022-07-29T14:40:23;9.75;;;7.50;;
66264;SDS011;53055;44.648;21.148;2022-07-29T14:42:50;10.02;;;7.57;;
66264;SDS011;53055;44.648;21.148;2022-07-29T14:45:16;9.70;;;8.05;;
66264;SDS011;53055;44.648;21.148;2022-07-29T14:47:42;10.43;;;7.47;;
66264;SDS011;53055;44.648;21.148;2022-07-29T14:50:08;9.25;;;7.15;;
66264;SDS011;53055;44.648;21.148;2022-07-29T14:52:35;8.25;;;7.10;;
66264;SDS011;53055;44.648;21.148;2022-07-29T14:55:02;9.60;;;7.40;;
66264;SDS011;53055;44.648;21.148;2022-07-29T14:57:28;8.90;;;7.40;;
66264;SDS011;53055;44.648;21.148;2022-07-29T14:59:54;9.55;;;7.35;;
66264;SDS011;53055;44.648;21.148;2022-07-29T15:02:20;10.10;;;7.85;;
66264;SDS011;53055;44.648;21.148;2022-07-29T15:04:46;10.18;;;8.15;;
66264;SDS011;53055;44.648;21.148;2022-07-29T15:07:13;8.68;;;7.75;;
66264;SDS011;53055;44.648;21.148;2022-07-29T15:09:39;11.52;;;7.93;;
66264;SDS011;53055;44.648;21.148;2022-07-29T15:12:06;10.80;;;7.75;;
66264;SDS011;53055;44.648;21.148;2022-07-29T15:14:32;9.85;;;7.88;;
66264;SDS011;53055;44.648;21.148;2022-07-29T15:16:58;8.82;;;7.82;;